Comers Rock, Virginia
Current Conditions -  °F | °C
As of 11:15 AM on Wednesday 26 Nov 2014 (Local Time) from KMKJ Reporting Station
Light Snow Light Snow  
Wind Chill: 31°   Ceiling: 2200
Heat Index: 35°   Visibility: 2.5mi
Dew Point: 33°   Wind: 5mph
Humidity: 95%   Direction: 260°W
Pressure: 30"   Gusts: NA
Location:  36.73°N, 81.1929°W
Report Text: KMKJ 261615Z AUTO 26004KT 2 1/2SM -SN SCT014 BKN022 OVC030 02/01 A3000 RMK AO2 P0002 T00150008
Loading
Personal Weather Stations






























Interactive Weather Map New forecast layout! Learn more

10-Day Weather Forecast

Advertisements
Track Severe Weather on mobile